Bango, Nevada Weather observations

Data are for 10 minute period ending at time listed.
 Day   Time    Ave.   Ave.  Ave.  Vector   Max.   Stn.    Total    Solar   Ave.  
  of    of     Air    Rel.  Wind   Wind    Wind   Baro.  Precip.   Rad.    Soil  
Year   Day     Temp.  Hum.  Speed  Dir.    Gust   Pres.                    Temp. 
2017   (PST)    F      %     mph   deg.    mph     mb.     in.     W/m2     F    
--------------------------------------------------------------------------------- 
 149    0:30   63.0    21    4.1   253      9.6   874.8    0.00       0    28.3  
 149    0:40   63.3    22    4.9   259     12.3   874.8    0.00       0    28.2  
 149    0:50   67.6    18   10.9   305     13.2   874.8    0.00       0    28.1  
 149    1:00   67.9    16   12.3   309     14.9   874.7    0.00       0    28.0  
 149    1:10   67.7    17   11.8   312     14.9   874.7    0.00       0    27.9  
 149    1:20   67.1    18   10.5   309     13.2   874.7    0.00       0    27.8  
 149    1:30   66.3    19    9.8   307     12.3   874.7    0.00       0    27.8  
 149    1:40   66.0    19   10.4   306     12.3   874.8    0.00       0    27.7  
 149    1:50   66.4    19   10.8   307     14.1   874.7    0.00       0    27.6  
 149    2:00   65.8    23    9.0   312     11.4   874.8    0.00       0    27.5  
 149    2:10   64.4    27    7.9   324     12.3   874.8    0.00       0    27.4  
 149    2:20   63.3    29    5.4   316      9.6   874.8    0.00       0    27.3  
 149    2:30   61.5    30    4.1   117      7.8   874.8    0.00       0    27.3  
 149    2:40   62.9    26    4.8   294     11.4   874.7    0.00       0    27.2  
 149    2:50   66.9    21    4.2   301      8.7   874.7    0.00       0    27.1  
 149    3:00   63.1    25    2.7   182      4.2   874.7    0.00       0    27.0  
 149    3:10   61.3    27    5.8   160      8.7   874.8    0.00       0    27.0  
 149    3:20   64.4    23    4.0   252      9.6   874.8    0.00       0    26.9  
 149    3:30   62.8    27    3.2   166      5.1   874.8    0.00       0    26.8  
 149    3:40   61.8    28    4.0   196      6.0   874.8    0.00       0    26.7  
 149    3:50   58.7    31    3.8   189      7.8   874.8    0.00       0    26.6  
 149    4:00   58.6    30    3.4   259      6.9   874.8    0.00       0    26.6  
 149    4:10   60.5    28    5.1   290      8.7   874.8    0.00       0    26.5  
 149    4:20   61.2    27    3.8   230      6.0   874.8    0.00       1    26.4  
 149    4:30   57.7    31    4.0   199      9.6   874.9    0.00       2    26.4  
 149    4:40   58.3    30    4.0   206      6.9   874.9    0.00       6    26.3  
 149    4:50   55.6    33    3.7   198      5.1   875.1    0.00      16    26.2  
 149    5:00   56.9    32    3.6   190      6.0   875.2    0.00      36    26.1  
 149    5:10   59.7    30    3.7   254      7.8   875.2    0.00      63    26.1  
 149    5:20   63.4    27    4.2   309      6.9   875.3    0.00      95    26.0  
 149    5:30   63.0    28    2.8   160      5.1   875.3    0.00     127    25.9  
 149    5:40   62.1    30    3.0   147      6.0   875.3    0.00     154    25.9  
 149    5:50   63.0    30    3.7   158      6.0   875.4    0.00     185    25.8  
 149    6:00   64.6    33    4.0   157      7.8   875.4    0.00     218    25.7  
 149    6:10   64.8    34    4.7   178      7.8   875.4    0.00     251    25.6  
 149    6:20   66.4    32    5.5   184      6.9   875.4    0.00     286    25.5  
 149    6:30   67.4    30    5.9   191      7.8   875.5    0.00     320    25.5  
 149    6:40   68.6    28    4.7   195      6.9   875.6    0.00     354    25.4  
 149    6:50   70.1    25    3.1   191      5.1   875.7    0.00     389    25.4  
 149    7:00   72.0    22    2.2   154      4.2   875.7    0.00     424    25.3  
 149    7:10   73.2    19    4.2   323      7.8   875.7    0.00     460    25.2  
 149    7:20   72.4    17    6.8   326     10.5   875.7    0.00     495    25.2  
 149    7:30   72.8    17    7.2   319     11.4   875.7    0.00     528    25.1  
 149    7:40   73.1    17    5.8   343      9.6   875.8    0.00     562    25.1  
 149    7:50   73.7    16    4.6   351      8.7   875.9    0.00     597    25.0  
 149    8:00   73.7    16    4.7     2      9.6   876.0    0.00     618    25.0  
 149    8:10   74.6    15    3.8     0      6.9   876.1    0.00     670    24.9  
 149    8:20   74.3    16    5.8    29      8.7   876.0    0.00     583    24.9  
 149    8:30   74.2    16    5.5    64      8.7   876.0    0.00     682    24.8  
 149    8:40   75.4    15    4.8    35      7.8   876.0    0.00     751    24.8  
 149    8:50   75.6    15    4.6   324      7.8   876.0    0.00     778    24.8  
 149    9:00   75.6    15    5.1    56      7.8   875.9    0.00     809    24.7  
 149    9:10   76.7    14    4.6    63      9.6   875.8    0.00     795    24.7  
 149    9:20   76.9    14    5.0    36     10.5   875.7    0.00     826    24.7  
 149    9:30   77.1    15    7.0     6     11.4   875.7    0.00     830    24.7  
 149    9:40   77.7    14    5.3    38      9.6   875.7    0.00     870    24.7  
 149    9:50   78.5    14    4.3    41      8.7   875.7    0.00     899    24.7  
 149   10:00   79.1    14    4.6   333      8.7   875.6    0.00     919    24.7  
 149   10:10   80.2    14    4.0   237      7.8   875.6    0.00     953    24.7  
 149   10:20   81.1    13    4.9   124      7.8   875.5    0.00     966    24.8  
 149   10:30   81.7    13    4.8   109      8.7   875.4    0.00     879    24.8  
 149   10:40   82.0    13    5.0    38     10.5   875.4    0.00     994    24.8  
 149   10:50   83.0    12    6.7   127     12.3   875.2    0.00    1016    24.9  
 149   11:00   82.1    12    6.4   102     12.3   875.2    0.00    1021    24.9  
 149   11:10   82.9    12    5.9   134     11.4   875.1    0.00    1020    25.0  
 149   11:20   83.5    12    4.7    55      8.7   875.0    0.00    1024    25.1  
 149   11:30   83.4    12    4.8    79      9.6   875.0    0.00     984    25.2  
 149   11:40   84.0    11    6.1   168     14.1   874.8    0.00    1047    25.2  
 149   11:50   84.2    11    5.6    70     10.5   874.7    0.00    1046    25.4  
 149   12:00   84.1    11    7.0    97     13.2   874.6    0.00    1019    25.5  
 149   12:10   84.2    11    4.8    94     11.4   874.5    0.00    1050    25.6  
 149   12:20   84.5    11    8.4   155     15.8   874.3    0.00    1043    25.7  
 149   12:30   84.7    11    9.1   145     18.5   874.3    0.00     992    25.8  
 149   12:40   85.3    10    8.6   120     14.9   874.3    0.00    1036    26.0  
 149   12:50   86.6    10    5.8    59     10.5   874.2    0.00    1053    26.1  
 149   13:00   86.6    10    8.8    84     14.9   874.0    0.00    1048    26.3  
 149   13:10   86.0    10    9.1    79     14.9   873.9    0.00    1050    26.4  
 149   13:20   87.0     9    5.9    89     14.1   873.7    0.00     874    26.6  
 149   13:30   86.0     9    6.3   108     14.9   873.7    0.00     841    26.7  
 149   13:40   87.1     9    7.7    96     13.2   873.5    0.00     923    26.9  
 149   13:50   86.5     9    5.7    57      9.6   873.4    0.00     727    27.0  
 149   14:00   85.7     9   10.0    43     16.7   873.2    0.00     508    27.2  
 149   14:10   86.3     8    6.4    49     11.4   873.1    0.00     799    27.4  
 149   14:20   86.5     9    4.2    85     11.4   873.0    0.00     664    27.5  
 149   14:30   86.2     9    8.9   146     15.8   872.8    0.00     579    27.7  
 149   14:40   85.9     9    7.6   149     12.3   872.7    0.00     495    27.8  
 149   14:50   85.6     9    7.7   144     12.3   872.6    0.00     413    28.0  
 149   15:00   85.1     9    4.4   217      7.8   872.6    0.00     369    28.2  
 149   15:10   85.1     9    4.3   206      6.9   872.5    0.00     358    28.3  
 149   15:20   85.4     9    3.8   273      5.1   872.3    0.00     433    28.5  
 149   15:30   86.5     9    3.5   329      6.0   872.2    0.00     644    28.6  
 149   15:40   87.4     9    5.5   109     10.5   872.1    0.00     623    28.8  
 149   15:50   86.6     8    5.4    99      9.6   872.0    0.00     629    28.9  
 149   16:00   86.5     8    4.6    49      7.8   871.9    0.00     601    29.0  
 149   16:10   87.5     8    3.9   106      6.0   871.8    0.00     588    29.1  
 149   16:20   86.6     8    5.2   172     10.5   871.7    0.00     357    29.2  
 149   16:30   86.2     8    8.0    88     12.3   871.7    0.00     254    29.3  
 149   16:40   85.4     8    4.9   104      9.6   871.7    0.00     211    29.4  
 149   16:50   85.1     8    5.9   112     14.9   871.6    0.00     183    29.5  
 149   17:00   84.9     8    4.0    68      6.0   871.5    0.00     167    29.6  
 149   17:10   85.0     8    3.4    86      5.1   871.5    0.00     179    29.7  
 149   17:20   85.6     8    2.8    46      6.0   871.4    0.00     234    29.8  
 149   17:30   86.7     8    4.6   317      9.6   871.3    0.00     362    29.8  
 149   17:40   86.9     8    4.3     3      7.8   871.4    0.00     372    29.9  
 149   17:50   86.2     8    6.4   336     11.4   871.4    0.00     224    29.9  
 149   18:00   85.5     8    5.3   339      9.6   871.4    0.00     234    30.0  
 149   18:10   85.9     8    2.6     4      6.0   871.5    0.00     174    30.0  
 149   18:20   84.9     9    6.3   354      8.7   871.5    0.00      81    30.1  
 149   18:30   84.1     9    4.8     3      7.8   871.6    0.00      69    30.1  
 149   18:40   83.4     9    5.3     8      6.9   871.5    0.00      47    30.2  
 149   18:50   82.1    10    5.3    16      6.0   871.5    0.00      25    30.2  
 149   19:00   80.3    12    7.8   285     17.6   871.7    0.00      14    30.2  
 149   19:10   80.0    13   14.6   272     21.2   871.8    0.00       8    30.2  
 149   19:20   78.7    14   18.1   266     22.1   871.8    0.00       3    30.2  
 149   19:30   78.0    14   17.1   259     23.9   871.9    0.00       1    30.2  
 149   19:40   77.5    15   17.5   244     26.6   872.0    0.00       0    30.2  
 149   19:50   77.3    15   18.0   249     25.7   872.0    0.00       0    30.2  
 149   20:00   76.9    16   17.3   269     24.8   871.9    0.00       0    30.2  
 149   20:10   77.6    15   20.0   275     25.7   871.9    0.00       0    30.2  
 149   20:20   77.4    15   20.6   280     27.5   871.9    0.00       0    30.2  
 149   20:30   77.6    14   22.1   284     29.2   871.9    0.00       0    30.2  
 149   20:40   77.5    14   19.5   287     27.5   872.0    0.00       0    30.1  
 149   20:50   76.9    15   19.7   295     28.4   872.2    0.00       0    30.1  
 149   21:00   76.0    15   18.6   294     23.9   872.2    0.00       0    30.1  
 149   21:10   75.4    16   18.5   296     25.7   872.3    0.00       0    30.0  
 149   21:20   75.0    18   18.8   296     24.8   872.2    0.00       0    30.0  
 149   21:30   74.7    19   18.0   298     23.0   872.2    0.00       0    30.0  
 149   21:40   74.8    19   18.8   297     24.8   872.1    0.00       0    29.9  
 149   21:50   74.9    18   18.6   297     24.8   872.1    0.00       0    29.9  
 149   22:00   74.8    18   19.0   296     24.8   872.1    0.00       0    29.8  
 149   22:10   74.4    18   18.4   296     23.9   872.1    0.00       0    29.8  
 149   22:20   74.1    19   17.7   297     24.8   872.1    0.00       0    29.7  
 149   22:30   74.8    18   15.1   294     25.7   872.4    0.00       0    29.7  
 149   22:40   73.9    19    6.8   280     14.9   872.7    0.00       0    29.6  
 149   22:50   72.3    21    6.0   184     11.4   872.7    0.00       0    29.6  
 149   23:00   70.6    23    7.0   216     14.9   872.7    0.00       0    29.5  
 149   23:10   71.0    23    5.4   212     11.4   872.7    0.00       0    29.5  
 149   23:20   70.4    23    8.8   228     19.4   872.7    0.00       0    29.4  
 149   23:30   72.0    22   10.3   249     15.8   872.5    0.00       0    29.3  
 149   23:40   71.1    22    9.9   256     14.9   872.5    0.00       0    29.3  
 149   23:50   67.9    25    8.6   254     13.2   872.5    0.00       0    29.2  
 150    0:00   67.8    25    6.6   262      9.6   872.4    0.00       0    29.1  
 150    0:10   68.6    24    6.8   274     12.3   872.3    0.00       0    29.1  
 150    0:20   72.2    21    9.4   289     14.1   872.2    0.00       0    29.0  

Return to Garden Spring, Nevada graphs page.


Western Regional Climate Center,wrcc@dri.edu